Time;durP1;ratioP1;P1;durP2;ratioP2;P2;SDS_P1;SDS_P2;PMS_P1;PMS_P2;Temp;Humidity;BMP_temperature;BMP_pressure;BME280_temperature;BME280_humidity;BME280_pressure;Samples;Min_cycle;Max_cycle;Signal;HPM_P1;HPM_P2
2022/02/13 00:00:10;;;;;;;3.87;3.10;;;;;;;2.71;68.38;101450.16;5018796;28;20227;-79
2022/02/13 00:02:37;;;;;;;2.60;2.40;;;;;;;2.75;68.65;101442.56;5019015;28;20231;-79
2022/02/13 00:05:04;;;;;;;3.00;2.80;;;;;;;2.77;67.93;101433.19;5019635;28;20212;-80
2022/02/13 00:07:33;;;;;;;3.23;2.20;;;;;;;2.69;67.80;101442.38;5019284;28;20690;-79
2022/02/13 00:09:59;;;;;;;3.43;2.83;;;;;;;2.80;68.17;101441.84;5019625;28;20611;-80
2022/02/13 00:12:26;;;;;;;3.53;2.50;;;;;;;2.83;68.73;101421.28;5022523;28;20228;-79
2022/02/13 00:14:53;;;;;;;4.70;2.70;;;;;;;2.75;68.74;101429.66;5020225;28;20197;-80
2022/02/13 00:17:20;;;;;;;3.23;2.30;;;;;;;2.71;68.93;101407.22;5019551;28;20215;-79
2022/02/13 00:19:46;;;;;;;4.20;2.77;;;;;;;2.56;68.83;101419.69;5018471;28;20265;-79
2022/02/13 00:22:12;;;;;;;4.33;3.43;;;;;;;2.63;68.26;101433.59;5019369;28;20211;-78
2022/02/13 00:24:40;;;;;;;4.23;2.37;;;;;;;2.64;68.15;101431.09;5019567;28;20213;-79
2022/02/13 00:27:07;;;;;;;3.97;2.60;;;;;;;2.62;67.94;101432.75;5019501;28;20626;-79
2022/02/13 00:29:33;;;;;;;4.57;3.00;;;;;;;2.66;68.36;101418.25;5018399;28;20302;-79
2022/02/13 00:31:59;;;;;;;2.87;2.60;;;;;;;2.68;68.20;101420.03;5019882;28;20207;-80
2022/02/13 00:34:26;;;;;;;4.77;2.93;;;;;;;2.68;67.83;101411.44;5018690;28;20242;-79
2022/02/13 00:36:52;;;;;;;2.90;2.60;;;;;;;2.60;68.92;101398.31;5018700;28;20211;-79
2022/02/13 00:39:18;;;;;;;3.37;2.73;;;;;;;2.57;69.14;101385.31;5019140;28;20240;-78
2022/02/13 00:41:46;;;;;;;2.63;2.43;;;;;;;2.51;69.88;101364.53;5021766;28;20262;-79
2022/02/13 00:44:12;;;;;;;2.70;2.50;;;;;;;2.48;70.76;101336.09;5019008;28;20226;-79
2022/02/13 00:46:39;;;;;;;3.33;3.00;;;;;;;2.45;70.08;101347.19;5019104;28;20258;-80
2022/02/13 00:49:05;;;;;;;3.47;2.67;;;;;;;2.50;68.12;101367.97;5018589;28;20203;-79
2022/02/13 00:51:32;;;;;;;3.30;3.00;;;;;;;2.51;69.48;101357.66;5018371;28;20211;-80
2022/02/13 00:53:59;;;;;;;4.50;2.93;;;;;;;2.45;70.25;101357.50;5017555;28;20231;-79
2022/02/13 00:56:26;;;;;;;4.07;3.07;;;;;;;2.43;67.96;101350.56;5018769;28;20861;-79
2022/02/13 00:58:53;;;;;;;3.73;2.87;;;;;;;2.50;68.84;101361.09;5018047;28;20211;-79
2022/02/13 01:01:20;;;;;;;3.30;2.97;;;;;;;2.44;68.74;101349.72;5017393;28;20231;-79
2022/02/13 01:03:47;;;;;;;7.17;3.17;;;;;;;2.37;68.92;101343.53;5017875;28;20251;-79
2022/02/13 01:06:15;;;;;;;4.23;2.80;;;;;;;2.33;69.14;101332.25;5018435;28;20574;-80
2022/02/13 01:08:41;;;;;;;4.10;2.80;;;;;;;2.40;69.34;101343.63;5018475;28;20212;-79
2022/02/13 01:11:08;;;;;;;3.83;3.30;;;;;;;2.46;69.06;101340.31;5021506;28;20261;-80
2022/02/13 01:13:35;;;;;;;3.93;3.53;;;;;;;2.37;70.24;101316.03;5030226;23;20226;-80
2022/02/13 01:16:03;;;;;;;4.33;2.87;;;;;;;2.46;70.33;101309.41;5026806;28;20206;-79
2022/02/13 01:18:29;;;;;;;3.83;3.03;;;;;;;2.39;70.14;101285.19;5032995;28;20264;-79
2022/02/13 01:20:55;;;;;;;5.00;2.87;;;;;;;2.33;71.08;101272.13;5032111;28;20223;-80
2022/02/13 01:23:22;;;;;;;3.00;2.70;;;;;;;2.31;70.91;101276.38;5032344;28;20214;-78
2022/02/13 01:25:48;;;;;;;4.80;4.40;;;;;;;2.17;71.34;101273.41;5033160;28;20238;-78
2022/02/13 01:28:15;;;;;;;4.63;2.63;;;;;;;2.19;70.62;101279.47;5033210;28;20202;-78
2022/02/13 01:30:42;;;;;;;3.40;2.87;;;;;;;2.21;71.54;101270.09;5032182;28;20202;-79
2022/02/13 01:33:09;;;;;;;3.40;3.00;;;;;;;2.21;71.80;101249.47;5032485;28;20218;-78
2022/02/13 01:35:36;;;;;;;6.07;3.40;;;;;;;2.20;69.61;101260.63;5033285;28;20583;-79
2022/02/13 01:38:02;;;;;;;3.43;3.13;;;;;;;2.24;68.62;101295.94;5033311;28;20206;-78
2022/02/13 01:40:28;;;;;;;3.70;3.30;;;;;;;2.34;69.77;101304.81;5032884;28;20303;-78
2022/02/13 01:42:55;;;;;;;4.60;3.00;;;;;;;2.29;70.42;101276.31;5031392;28;20245;-77
2022/02/13 01:45:22;;;;;;;3.23;2.93;;;;;;;2.24;69.02;101292.47;5032587;28;20770;-79
2022/02/13 01:47:49;;;;;;;4.43;3.37;;;;;;;2.29;68.94;101307.22;5032439;28;20289;-80
2022/02/13 01:50:16;;;;;;;4.07;3.37;;;;;;;2.37;69.39;101287.72;5032770;28;20260;-78
2022/02/13 01:52:43;;;;;;;3.93;3.20;;;;;;;2.35;69.21;101263.59;5032668;28;20220;-79
2022/02/13 01:55:09;;;;;;;3.80;2.93;;;;;;;2.38;70.04;101266.28;5033095;28;20379;-78
2022/02/13 01:57:36;;;;;;;3.43;3.13;;;;;;;2.34;69.16;101281.63;5032799;28;20237;-80
2022/02/13 02:00:05;;;;;;;4.27;3.20;;;;;;;2.25;69.27;101271.06;5032615;28;20676;-80
2022/02/13 02:02:31;;;;;;;3.60;3.00;;;;;;;2.21;69.40;101272.66;5032448;28;20748;-80
2022/02/13 02:04:58;;;;;;;3.43;3.13;;;;;;;2.17;67.94;101299.16;5032438;28;20260;-78
2022/02/13 02:07:26;;;;;;;3.57;3.20;;;;;;;2.28;67.14;101317.47;5032148;28;20206;-78
2022/02/13 02:09:53;;;;;;;4.23;3.33;;;;;;;2.37;68.03;101307.44;5031935;28;20205;-78
2022/02/13 02:12:20;;;;;;;5.20;3.37;;;;;;;2.39;66.95;101319.53;5032127;28;20207;-78
2022/02/13 02:14:46;;;;;;;3.60;3.27;;;;;;;2.34;66.47;101333.16;5031290;28;20720;-78
2022/02/13 02:17:13;;;;;;;4.43;3.47;;;;;;;2.38;66.25;101345.28;5031949;28;20205;-78
2022/02/13 02:19:39;;;;;;;4.43;3.30;;;;;;;2.38;66.91;101333.28;5031970;28;20202;-78
2022/02/13 02:22:06;;;;;;;3.93;3.53;;;;;;;2.31;67.12;101318.44;5032699;28;20268;-79
2022/02/13 02:24:34;;;;;;;3.60;3.30;;;;;;;2.32;67.59;101320.22;5033176;28;20282;-79
2022/02/13 02:27:01;;;;;;;4.10;3.60;;;;;;;2.30;65.59;101344.16;5035960;28;20206;-80
2022/02/13 02:29:27;;;;;;;3.40;3.07;;;;;;;2.27;67.58;101341.50;5035525;28;20260;-80
2022/02/13 02:31:54;;;;;;;5.17;3.40;;;;;;;2.10;68.14;101292.97;5036410;28;20206;-79
2022/02/13 02:34:20;;;;;;;3.73;2.90;;;;;;;1.90;70.34;101237.41;5036674;28;20234;-78
2022/02/13 02:36:46;;;;;;;4.03;3.53;;;;;;;1.75;69.99;101225.84;5036158;28;20259;-78
2022/02/13 02:39:13;;;;;;;3.50;3.20;;;;;;;1.85;69.79;101241.56;5035918;28;20263;-77
2022/02/13 02:41:40;;;;;;;4.43;3.43;;;;;;;2.14;66.73;101284.50;5034920;28;20233;-79
2022/02/13 02:44:07;;;;;;;4.33;3.60;;;;;;;2.21;66.65;101313.88;5034968;28;20230;-78
2022/02/13 02:46:33;;;;;;;3.47;3.17;;;;;;;2.24;66.18;101319.13;5035855;28;20198;-78
2022/02/13 02:48:59;;;;;;;3.83;3.37;;;;;;;2.11;67.59;101270.66;5035608;28;20206;-78
2022/02/13 02:51:26;;;;;;;5.10;3.50;;;;;;;1.89;70.58;101217.66;5035342;28;20202;-80
2022/02/13 02:53:52;;;;;;;4.47;4.07;;;;;;;1.86;69.21;101212.41;5035175;28;20284;-80
2022/02/13 02:56:19;;;;;;;4.87;3.53;;;;;;;1.97;67.74;101235.06;5035155;28;20210;-79
2022/02/13 02:58:46;;;;;;;4.93;3.57;;;;;;;2.04;67.57;101237.81;5035463;28;20213;-77
2022/02/13 03:01:13;;;;;;;3.60;3.27;;;;;;;1.94;68.54;101208.34;5034604;28;20640;-77
2022/02/13 03:03:39;;;;;;;4.00;3.60;;;;;;;1.91;68.08;101228.88;5035331;28;20256;-79
2022/02/13 03:06:06;;;;;;;3.77;3.47;;;;;;;1.93;68.46;101220.38;5035011;28;20622;-79
2022/02/13 03:08:32;;;;;;;4.33;3.50;;;;;;;1.97;67.22;101245.38;5035127;28;20264;-78
2022/02/13 03:11:01;;;;;;;7.30;3.50;;;;;;;2.09;67.48;101239.69;5035138;28;20240;-78
2022/02/13 03:13:28;;;;;;;4.70;3.40;;;;;;;2.06;67.91;101234.47;5034961;28;20320;-80
2022/02/13 03:15:56;;;;;;;4.37;3.57;;;;;;;2.01;68.62;101207.72;5034811;28;20225;-79
2022/02/13 03:18:22;;;;;;;7.17;3.67;;;;;;;2.02;69.10;101200.84;5035175;28;20206;-80
2022/02/13 03:20:50;;;;;;;5.27;3.90;;;;;;;2.06;66.63;101218.13;5034554;28;20233;-78
2022/02/13 03:23:18;;;;;;;4.20;3.80;;;;;;;2.15;66.78;101237.28;5034574;28;20202;-78
2022/02/13 03:25:45;;;;;;;3.80;3.40;;;;;;;2.19;67.01;101257.16;5034882;28;20754;-79
2022/02/13 03:28:11;;;;;;;4.50;3.33;;;;;;;2.22;66.52;101255.50;5034529;28;20686;-79
2022/02/13 03:30:38;;;;;;;4.57;3.27;;;;;;;2.24;66.86;101249.56;5034325;28;20206;-78
2022/02/13 03:33:06;;;;;;;4.10;3.70;;;;;;;2.22;66.66;101258.06;5034786;28;20626;-78
2022/02/13 03:35:32;;;;;;;3.80;3.50;;;;;;;2.27;65.68;101277.13;5034746;28;20283;-79
2022/02/13 03:37:58;;;;;;;4.50;3.33;;;;;;;2.34;64.98;101281.63;5033105;28;20210;-78
2022/02/13 03:40:25;;;;;;;4.83;3.57;;;;;;;2.40;65.02;101286.94;5034429;28;20236;-78
2022/02/13 03:42:52;;;;;;;4.73;4.00;;;;;;;2.45;65.47;101295.66;5034064;28;20234;-78
2022/02/13 03:45:18;;;;;;;5.17;3.47;;;;;;;2.46;66.02;101274.22;5033933;28;20735;-80
2022/02/13 03:47:45;;;;;;;3.60;3.30;;;;;;;2.40;64.53;101266.34;5034544;28;20256;-79
2022/02/13 03:50:13;;;;;;;5.03;3.63;;;;;;;2.32;64.98;101271.25;5034360;28;20221;-79
2022/02/13 03:52:40;;;;;;;4.07;3.30;;;;;;;2.29;66.03;101250.56;5034325;28;20202;-79
2022/02/13 03:55:07;;;;;;;4.20;3.80;;;;;;;2.28;65.10;101255.66;5034442;28;20229;-79
2022/02/13 03:57:34;;;;;;;4.27;3.40;;;;;;;2.29;65.52;101254.84;5035324;28;20279;-79
2022/02/13 04:00:01;;;;;;;4.23;3.60;;;;;;;2.30;65.46;101246.28;5034317;28;20202;-79
2022/02/13 04:02:28;;;;;;;3.27;2.97;;;;;;;2.27;66.15;101223.88;5034224;28;20226;-79
2022/02/13 04:04:54;;;;;;;4.93;4.03;;;;;;;2.23;66.48;101209.19;5034280;28;20222;-79
2022/02/13 04:07:22;;;;;;;7.00;3.53;;;;;;;2.21;66.82;101195.38;5034168;28;20256;-80
2022/02/13 04:09:48;;;;;;;4.03;3.30;;;;;;;2.22;67.46;101176.53;5033767;28;20627;-79
2022/02/13 04:12:14;;;;;;;3.83;3.47;;;;;;;2.18;66.72;101175.59;5034234;28;20202;-80
2022/02/13 04:14:41;;;;;;;3.77;3.20;;;;;;;2.19;66.85;101199.63;5035226;28;20238;-79
2022/02/13 04:17:07;;;;;;;4.57;3.67;;;;;;;2.16;66.63;101192.69;5033775;28;20281;-79
2022/02/13 04:19:34;;;;;;;5.00;3.53;;;;;;;2.16;66.57;101194.38;5033842;28;20210;-79
2022/02/13 04:22:01;;;;;;;4.20;3.80;;;;;;;2.12;66.29;101205.44;5034518;28;20276;-79
2022/02/13 04:24:28;;;;;;;7.17;4.33;;;;;;;2.21;66.13;101185.09;5045962;28;20276;-80
2022/02/13 04:26:55;;;;;;;3.80;3.50;;;;;;;2.24;66.10;101200.63;5047992;28;20253;-80
2022/02/13 04:29:21;;;;;;;4.17;3.77;;;;;;;2.21;66.46;101195.38;5047527;28;20229;-80
2022/02/13 04:31:47;;;;;;;5.03;4.03;;;;;;;2.22;66.61;101194.56;5053639;28;20664;-80
2022/02/13 04:34:14;;;;;;;4.13;3.80;;;;;;;2.21;66.31;101194.53;5049382;28;20230;-80
2022/02/13 04:36:40;;;;;;;5.90;3.57;;;;;;;2.16;65.95;101194.38;5048190;28;20245;-80
2022/02/13 04:39:07;;;;;;;3.90;3.50;;;;;;;2.11;66.36;101185.66;5045181;28;20252;-80
2022/02/13 04:41:35;;;;;;;6.50;4.20;;;;;;;2.01;67.21;101168.22;5035479;28;20229;-79
2022/02/13 04:44:01;;;;;;;4.50;4.10;;;;;;;2.03;67.69;101156.28;5035397;28;20720;-80
2022/02/13 04:46:28;;;;;;;14.03;4.40;;;;;;;2.04;67.92;101139.97;5034074;28;20264;-78
2022/02/13 04:48:54;;;;;;;8.77;4.00;;;;;;;1.84;68.64;101126.56;5034132;28;20211;-78
2022/02/13 04:51:20;;;;;;;4.67;3.60;;;;;;;1.83;68.73;101105.09;5033994;28;20248;-78
2022/02/13 04:53:47;;;;;;;4.23;3.73;;;;;;;1.86;69.22;101083.72;5033941;28;20778;-77
2022/02/13 04:56:14;;;;;;;3.40;3.10;;;;;;;1.83;67.81;101097.38;5033403;28;20205;-80
2022/02/13 04:58:42;;;;;;;4.20;3.80;;;;;;;1.82;68.26;101098.19;5033917;28;20210;-78
2022/02/13 05:01:09;;;;;;;7.27;4.40;;;;;;;1.84;67.41;101111.09;5033318;28;20245;-77
2022/02/13 05:03:36;;;;;;;4.70;3.70;;;;;;;1.88;68.22;101102.63;5032963;28;20229;-78
2022/02/13 05:06:03;;;;;;;4.83;4.10;;;;;;;1.92;66.99;101091.59;5032493;28;20314;-78
2022/02/13 05:08:29;;;;;;;4.93;3.93;;;;;;;1.86;67.56;101099.16;5032547;28;20256;-78
2022/02/13 05:10:55;;;;;;;5.63;3.33;;;;;;;1.85;68.44;101084.56;5032514;28;20206;-78
2022/02/13 05:13:22;;;;;;;6.70;4.07;;;;;;;1.89;68.18;101083.81;5032516;28;20256;-77
2022/02/13 05:15:50;;;;;;;4.47;3.90;;;;;;;1.92;67.90;101076.16;5032436;28;20210;-78
2022/02/13 05:18:16;;;;;;;3.90;3.60;;;;;;;1.92;68.12;101076.16;5032575;28;20201;-76
2022/02/13 05:20:42;;;;;;;4.53;3.80;;;;;;;1.87;67.97;101083.75;5032902;28;20210;-78
2022/02/13 05:23:09;;;;;;;5.33;4.50;;;;;;;1.77;66.81;101094.63;5032753;28;20279;-77
2022/02/13 05:25:35;;;;;;;4.30;3.87;;;;;;;1.85;66.96;101110.28;5033450;28;20255;-78
2022/02/13 05:28:01;;;;;;;6.87;4.67;;;;;;;1.86;67.87;101096.56;5033952;28;20206;-80
2022/02/13 05:30:28;;;;;;;5.33;3.97;;;;;;;1.87;68.17;101101.78;5033573;28;20842;-78
2022/02/13 05:32:55;;;;;;;4.30;3.90;;;;;;;1.90;67.54;101100.97;5034223;28;20735;-80
2022/02/13 05:35:22;;;;;;;3.70;3.40;;;;;;;1.77;68.09;101099.78;5033521;28;20299;-78
2022/02/13 05:37:49;;;;;;;5.20;4.50;;;;;;;1.75;67.58;101080.84;5033076;28;20693;-81
2022/02/13 05:40:16;;;;;;;4.53;4.20;;;;;;;1.80;68.51;101066.41;5033733;28;20218;-77
2022/02/13 05:42:42;;;;;;;6.93;4.17;;;;;;;1.81;68.69;101068.16;5033583;28;20599;-80
2022/02/13 05:45:09;;;;;;;3.90;3.60;;;;;;;1.78;69.28;101052.63;5034101;28;20292;-80
2022/02/13 05:47:35;;;;;;;4.27;3.87;;;;;;;1.77;70.02;101038.88;5034433;28;20202;-79
2022/02/13 05:50:04;;;;;;;6.07;4.93;;;;;;;1.62;67.55;101066.75;5033956;28;20209;-80
2022/02/13 05:52:31;;;;;;;4.47;3.77;;;;;;;1.63;69.34;101052.22;5034313;28;20216;-80
2022/02/13 05:54:57;;;;;;;4.50;4.10;;;;;;;1.56;69.14;101026.28;5034292;28;20283;-79
2022/02/13 05:57:23;;;;;;;4.30;3.90;;;;;;;1.57;69.69;101020.34;5034486;28;20260;-80
2022/02/13 05:59:50;;;;;;;5.13;4.20;;;;;;;1.58;68.96;101009.19;5032531;28;20202;-79
2022/02/13 06:02:16;;;;;;;4.33;3.97;;;;;;;1.61;68.95;101018.72;5033436;28;20226;-79
2022/02/13 06:04:42;;;;;;;5.30;4.20;;;;;;;1.57;68.35;101029.75;5033770;28;20226;-78
2022/02/13 06:07:10;;;;;;;4.50;4.10;;;;;;;1.60;69.10;101016.97;5034170;28;20206;-79
2022/02/13 06:09:36;;;;;;;6.00;4.67;;;;;;;1.49;68.29;101002.97;5033782;28;20256;-79
2022/02/13 06:12:03;;;;;;;4.37;3.90;;;;;;;1.42;69.07;101029.34;5033906;28;20256;-79
2022/02/13 06:14:29;;;;;;;4.27;3.93;;;;;;;1.27;69.55;100979.22;5033077;28;20283;-79
2022/02/13 06:16:57;;;;;;;6.87;4.53;;;;;;;1.26;69.70;100974.91;5033050;28;20587;-79
2022/02/13 06:19:23;;;;;;;4.13;3.63;;;;;;;1.30;70.48;100965.56;5033713;28;20206;-79
2022/02/13 06:21:49;;;;;;;7.00;4.50;;;;;;;1.30;70.05;100975.84;5033411;28;20222;-79
2022/02/13 06:24:17;;;;;;;5.90;4.80;;;;;;;1.27;69.12;100997.22;5033624;28;20226;-80
2022/02/13 06:26:43;;;;;;;6.43;5.23;;;;;;;1.30;68.45;101012.72;5033690;28;20259;-79
2022/02/13 06:29:10;;;;;;;5.33;4.40;;;;;;;1.35;69.28;101015.44;5033289;28;20567;-80
2022/02/13 06:31:37;;;;;;;4.47;4.07;;;;;;;1.41;68.76;101022.44;5032849;28;20588;-81
2022/02/13 06:34:03;;;;;;;5.50;4.53;;;;;;;1.46;69.18;101019.16;5032394;28;20226;-80
2022/02/13 06:36:29;;;;;;;7.93;5.57;;;;;;;1.54;67.86;101033.09;5034147;28;20225;-79
2022/02/13 06:38:56;;;;;;;6.10;5.50;;;;;;;1.50;66.96;101062.16;5034042;28;20202;-80
2022/02/13 06:41:24;;;;;;;8.23;5.17;;;;;;;1.54;67.97;101066.56;5033098;28;20202;-79
2022/02/13 06:43:50;;;;;;;7.93;4.83;;;;;;;1.39;67.27;101079.00;5033078;28;20283;-79
2022/02/13 06:46:17;;;;;;;6.37;5.37;;;;;;;1.16;69.33;101043.19;5033216;28;20264;-78
2022/02/13 06:48:43;;;;;;;5.80;5.33;;;;;;;1.15;70.34;101018.31;5031494;28;20285;-78
2022/02/13 06:51:10;;;;;;;6.10;5.50;;;;;;;1.16;68.98;101003.75;5033299;28;20665;-80
2022/02/13 06:53:37;;;;;;;5.63;5.07;;;;;;;1.06;70.54;100991.47;5033837;28;20216;-81
2022/02/13 06:56:03;;;;;;;5.47;5.07;;;;;;;1.15;69.02;101027.72;5033878;28;20664;-81
2022/02/13 06:58:31;;;;;;;6.27;5.50;;;;;;;1.25;67.83;101055.47;5033636;28;20672;-80
2022/02/13 07:00:57;;;;;;;5.60;5.10;;;;;;;1.32;68.55;101054.78;5033029;28;20202;-82
2022/02/13 07:03:24;;;;;;;6.60;5.17;;;;;;;1.37;67.92;101062.66;5030841;28;20222;-79
2022/02/13 07:05:50;;;;;;;7.27;5.43;;;;;;;1.35;66.88;101096.03;5033050;28;20582;-80
2022/02/13 07:08:16;;;;;;;5.40;4.90;;;;;;;1.46;67.48;101113.47;5032762;28;20677;-81
2022/02/13 07:10:43;;;;;;;6.27;5.37;;;;;;;1.46;68.64;101087.75;5030715;28;20198;-79
2022/02/13 07:13:09;;;;;;;6.20;5.20;;;;;;;1.46;68.88;101069.75;5036491;28;20199;-78
2022/02/13 07:15:37;;;;;;;5.20;4.70;;;;;;;1.41;69.53;101056.75;5035945;28;20835;-80
2022/02/13 07:18:04;;;;;;;5.63;4.87;;;;;;;1.19;69.35;101047.56;5036204;28;20233;-79
2022/02/13 07:20:30;;;;;;;7.53;5.77;;;;;;;1.27;69.68;101045.19;5036305;28;20290;-81
2022/02/13 07:22:57;;;;;;;8.67;4.80;;;;;;;1.14;69.92;101036.25;5036108;28;20218;-81
2022/02/13 07:25:23;;;;;;;5.50;4.80;;;;;;;1.18;70.76;101015.81;5035970;28;20228;-80
2022/02/13 07:27:50;;;;;;;6.50;5.37;;;;;;;1.22;69.62;101021.94;5035892;28;20194;-79
2022/02/13 07:30:16;;;;;;;10.03;5.67;;;;;;;1.29;69.63;101035.81;5035435;28;20203;-78
2022/02/13 07:32:45;;;;;;;6.10;5.50;;;;;;;1.32;67.66;101067.66;5035608;28;20277;-81
2022/02/13 07:35:12;;;;;;;6.47;5.20;;;;;;;1.34;67.79;101065.13;5035602;28;20226;-79
2022/02/13 07:40:15;;;;;;;6.50;5.80;;;;;;;1.50;68.41;101072.44;5043314;23;20245;-75
2022/02/13 07:42:42;;;;;;;6.23;5.63;;;;;;;1.48;66.57;101086.97;5013871;28;20576;-75
2022/02/13 07:45:09;;;;;;;7.40;5.93;;;;;;;1.50;66.52;101098.16;5014552;28;20648;-77
2022/02/13 07:47:35;;;;;;;6.13;5.47;;;;;;;1.61;67.20;101088.19;5014646;28;20206;-76
2022/02/13 07:50:04;;;;;;;7.73;5.10;;;;;;;1.67;67.07;101083.22;5014560;28;20206;-74
2022/02/13 07:52:30;;;;;;;5.97;5.37;;;;;;;1.72;67.33;101076.47;5014485;28;20628;-76
2022/02/13 07:54:57;;;;;;;6.60;6.00;;;;;;;1.70;67.61;101083.28;5014381;28;20715;-76
2022/02/13 07:57:23;;;;;;;8.13;6.07;;;;;;;1.68;67.02;101096.94;5014559;28;20261;-76
2022/02/13 07:59:50;;;;;;;6.53;5.90;;;;;;;1.67;66.89;101097.78;5014385;28;20209;-76
2022/02/13 08:02:16;;;;;;;6.10;5.53;;;;;;;1.71;67.86;101095.34;5014331;28;20231;-76
2022/02/13 08:04:43;;;;;;;6.73;5.83;;;;;;;1.68;67.30;101090.09;5014362;28;20230;-76
2022/02/13 08:07:11;;;;;;;6.67;5.37;;;;;;;1.78;67.81;101088.66;5014308;28;20313;-75
2022/02/13 08:09:37;;;;;;;6.77;6.07;;;;;;;1.84;67.45;101088.81;4992282;28;20672;-75
2022/02/13 08:12:04;;;;;;;6.90;6.17;;;;;;;1.83;66.42;101114.53;4994656;28;20215;-75
2022/02/13 08:14:31;;;;;;;6.70;5.30;;;;;;;1.81;65.64;101109.34;4994841;28;20231;-75
2022/02/13 08:16:57;;;;;;;8.87;6.83;;;;;;;1.91;65.98;101120.75;4994598;28;20211;-75
2022/02/13 08:19:23;;;;;;;5.60;5.00;;;;;;;1.97;65.86;101111.47;4994461;28;20261;-75
2022/02/13 08:21:50;;;;;;;6.33;5.80;;;;;;;2.00;66.66;101102.97;4994395;28;20317;-75
2022/02/13 08:24:18;;;;;;;6.77;5.80;;;;;;;2.00;65.92;101092.66;4993527;28;20235;-75
2022/02/13 08:26:44;;;;;;;6.70;5.83;;;;;;;2.02;65.90;101101.28;4994590;28;20208;-75
2022/02/13 08:29:10;;;;;;;6.33;5.60;;;;;;;2.00;65.30;101105.53;4997705;28;20215;-78
2022/02/13 08:31:37;;;;;;;6.67;5.97;;;;;;;2.02;63.91;101128.75;4996846;28;20265;-78
2022/02/13 08:34:03;;;;;;;6.50;5.80;;;;;;;2.03;65.09;101131.38;4997771;28;20285;-80
2022/02/13 08:36:30;;;;;;;6.60;5.83;;;;;;;2.05;64.28;101134.00;4995516;28;20672;-78
2022/02/13 08:38:56;;;;;;;6.33;5.83;;;;;;;2.06;63.95;101120.28;4987132;28;20228;-78
2022/02/13 08:41:24;;;;;;;5.57;5.07;;;;;;;2.13;63.79;101133.38;4995307;28;20210;-75
2022/02/13 08:43:50;;;;;;;6.77;5.03;;;;;;;2.15;64.44;101143.72;4994650;28;20356;-76
2022/02/13 08:46:17;;;;;;;6.97;5.40;;;;;;;2.14;63.42;101155.72;4994637;28;20269;-79
2022/02/13 08:48:44;;;;;;;5.63;4.80;;;;;;;2.18;63.69;101185.00;4995275;28;20250;-80
2022/02/13 08:51:10;;;;;;;5.80;4.67;;;;;;;2.22;63.62;101163.66;4995118;28;20207;-76
2022/02/13 08:53:37;;;;;;;5.20;4.43;;;;;;;2.22;63.02;101158.50;4994900;28;20223;-77
2022/02/13 08:56:04;;;;;;;5.93;5.33;;;;;;;2.23;62.90;101183.41;4995361;28;20486;-78
2022/02/13 08:58:32;;;;;;;6.53;4.77;;;;;;;2.21;62.94;101185.09;4994371;28;20258;-76
2022/02/13 09:00:59;;;;;;;6.37;4.97;;;;;;;2.27;63.21;101174.94;4993810;28;20208;-75
2022/02/13 09:03:27;;;;;;;5.77;4.93;;;;;;;2.28;62.00;101184.44;4994027;28;20318;-79
2022/02/13 09:05:54;;;;;;;6.10;5.47;;;;;;;2.32;62.37;101188.84;4996873;28;20231;-80
2022/02/13 09:08:20;;;;;;;5.70;5.10;;;;;;;2.35;61.89;101193.19;4992344;28;20244;-80
2022/02/13 09:10:46;;;;;;;5.80;4.90;;;;;;;2.30;63.00;101177.63;4985553;28;20203;-77
2022/02/13 09:13:13;;;;;;;5.43;4.93;;;;;;;2.40;62.46;101160.69;4993617;28;20633;-77
2022/02/13 09:15:40;;;;;;;5.23;4.73;;;;;;;2.44;62.08;101167.66;4993596;28;20212;-75
2022/02/13 09:18:11;;;;;;;5.70;5.13;;;;;;;2.49;61.54;101178.09;4992827;28;20200;-75
2022/02/13 09:20:38;;;;;;;5.70;4.60;;;;;;;2.52;61.01;101165.28;4990003;28;20207;-75
2022/02/13 09:23:04;;;;;;;5.00;4.53;;;;;;;2.58;61.25;101188.66;4991022;28;20592;-75
2022/02/13 09:25:31;;;;;;;4.70;4.07;;;;;;;2.66;62.59;101161.34;4992620;28;20200;-75
2022/02/13 09:27:57;;;;;;;5.80;4.67;;;;;;;2.75;61.07;101189.06;4989345;28;20223;-75
2022/02/13 09:30:24;;;;;;;4.73;4.33;;;;;;;2.78;60.28;101200.31;4992222;28;20205;-75
2022/02/13 09:32:53;;;;;;;5.77;4.50;;;;;;;2.87;60.57;101214.28;4992340;28;20746;-75
2022/02/13 09:35:19;;;;;;;5.57;4.70;;;;;;;2.92;58.89;101210.97;4991839;28;20203;-75
2022/02/13 09:37:48;;;;;;;6.20;5.37;;;;;;;3.01;58.72;101236.09;4992607;28;20212;-75
2022/02/13 09:40:14;;;;;;;4.63;4.23;;;;;;;3.09;58.09;101268.16;4992028;28;20269;-77
2022/02/13 09:42:44;;;;;;;5.67;4.47;;;;;;;3.16;59.55;101254.56;4992419;28;20265;-75
2022/02/13 09:45:11;;;;;;;4.67;4.27;;;;;;;3.22;58.67;101253.84;4992034;28;20261;-75
2022/02/13 09:47:38;;;;;;;4.90;4.20;;;;;;;3.24;58.52;101266.78;4992062;28;20204;-75
2022/02/13 09:50:07;;;;;;;5.50;4.97;;;;;;;3.26;56.85;101270.25;4992090;28;20724;-75
2022/02/13 09:52:33;;;;;;;4.53;4.13;;;;;;;3.30;57.66;101275.53;4992704;28;20211;-79
2022/02/13 09:55:02;;;;;;;6.07;5.30;;;;;;;3.34;57.69;101258.41;4992920;28;20842;-77
2022/02/13 10:00:13;;;;;;;5.50;4.53;;;;;;;3.47;57.23;101280.22;4994243;28;20258;-80
2022/02/13 10:02:41;;;;;;;6.13;5.30;;;;;;;3.48;58.44;101238.97;4994947;28;20266;-77
2022/02/13 10:05:11;;;;;;;5.23;4.40;;;;;;;3.45;57.62;101238.91;4994245;28;20228;-76
2022/02/13 10:07:39;;;;;;;5.57;4.60;;;;;;;3.48;58.74;101240.69;4994262;28;20209;-77
2022/02/13 10:10:08;;;;;;;4.73;4.33;;;;;;;3.54;59.34;101235.66;4995123;28;20211;-76
2022/02/13 10:12:40;;;;;;;4.97;4.50;;;;;;;3.48;58.22;101207.97;4994050;28;20204;-77
2022/02/13 10:15:30;;;;;;;6.63;4.90;;;;;;;3.59;56.16;101277.94;5000902;28;20229;-80
2022/02/13 10:18:03;;;;;;;6.40;4.57;;;;;;;3.64;56.95;101281.47;5004623;28;20563;-79
2022/02/13 10:20:32;;;;;;;5.47;4.97;;;;;;;3.74;56.38;101329.03;5000244;28;20216;-78
2022/02/13 10:23:07;;;;;;;7.87;7.13;;;;;;;3.85;58.09;101306.94;4993477;28;20274;-82
2022/02/13 10:25:34;;;;;;;5.70;5.20;;;;;;;3.94;56.90;101291.66;4985244;28;20232;-82
2022/02/13 10:28:09;;;;;;;6.20;5.60;;;;;;;4.04;56.59;101336.59;4993632;28;20204;-81
2022/02/13 10:30:38;;;;;;;5.87;4.80;;;;;;;4.13;54.97;101369.53;4994050;28;20282;-80
2022/02/13 10:33:15;;;;;;;5.90;5.30;;;;;;;4.24;55.44;101357.75;4993226;28;20235;-80
2022/02/13 10:35:43;;;;;;;5.40;4.90;;;;;;;4.31;55.47;101340.66;4994609;28;20211;-81
2022/02/13 10:38:10;;;;;;;4.73;4.37;;;;;;;4.43;55.83;101289.19;4993446;28;20667;-81
2022/02/13 10:40:36;;;;;;;4.90;4.43;;;;;;;4.54;54.62;101310.09;4996767;28;20624;-80
2022/02/13 10:43:05;;;;;;;7.53;6.87;;;;;;;4.67;54.88;101348.28;4999953;28;20588;-80
2022/02/13 10:45:32;;;;;;;8.33;7.73;;;;;;;4.78;54.07;101370.06;4995898;28;20263;-77
2022/02/13 10:48:00;;;;;;;5.43;4.93;;;;;;;4.93;58.45;101348.78;4995524;28;20211;-76
2022/02/13 10:50:28;;;;;;;5.47;4.97;;;;;;;4.99;53.73;101342.84;4995674;28;20209;-77
2022/02/13 10:52:59;;;;;;;6.70;5.77;;;;;;;5.04;53.34;101415.41;4995680;28;20208;-76
2022/02/13 10:55:26;;;;;;;6.30;5.00;;;;;;;5.16;54.17;101390.63;4995167;28;20246;-75
2022/02/13 10:57:54;;;;;;;6.10;5.37;;;;;;;5.21;53.86;101375.16;4995410;28;20202;-75
2022/02/13 11:00:21;;;;;;;5.37;4.93;;;;;;;5.13;51.71;101437.16;4995210;28;20206;-75
2022/02/13 11:02:49;;;;;;;6.37;4.60;;;;;;;5.13;50.77;101457.84;4995459;28;20212;-75
2022/02/13 11:05:17;;;;;;;4.80;4.40;;;;;;;5.17;51.57;101451.00;4997333;28;20233;-77
2022/02/13 11:07:47;;;;;;;5.83;4.73;;;;;;;5.25;51.29;101454.66;4996302;28;20207;-78
2022/02/13 11:10:20;;;;;;;5.60;5.10;;;;;;;5.30;51.15;101460.75;4998642;28;20244;-76
2022/02/13 11:12:49;;;;;;;5.40;4.90;;;;;;;5.33;51.92;101442.72;4995099;28;20205;-77
2022/02/13 11:15:17;;;;;;;5.50;4.57;;;;;;;5.38;51.40;101469.53;4995233;28;20213;-77
2022/02/13 11:17:46;;;;;;;5.60;4.90;;;;;;;5.45;51.27;101464.47;4995521;28;20213;-76
2022/02/13 11:20:14;;;;;;;5.37;4.87;;;;;;;5.56;52.99;101427.56;4995539;28;20241;-76
2022/02/13 11:22:42;;;;;;;5.80;5.30;;;;;;;5.57;50.76;101434.50;4994446;28;20256;-75
2022/02/13 11:25:10;;;;;;;6.13;5.07;;;;;;;5.62;51.10;101433.72;4986777;28;20265;-75
2022/02/13 11:27:54;;;;;;;5.03;4.53;;;;;;;5.57;49.56;101437.09;4995203;28;20215;-75
2022/02/13 11:30:42;;;;;;;5.07;4.53;;;;;;;5.73;50.92;101445.16;4994761;28;20209;-75
2022/02/13 11:33:10;;;;;;;4.90;4.50;;;;;;;5.82;50.61;101442.69;4995208;28;20239;-76
2022/02/13 11:35:53;;;;;;;6.20;4.60;;;;;;;5.88;48.76;101434.16;4995876;28;20220;-76
2022/02/13 11:38:53;;;;;;;4.57;4.17;;;;;;;5.96;48.96;101471.47;4995252;28;20296;-76